sensor_id;sensor_type;location;lat;lon;timestamp;P1;durP1;ratioP1;P2;durP2;ratioP2
57635;SDS011;43465;50.728;4.160;2022-12-07T00:01:08;33.05;;;20.33;;
57635;SDS011;43465;50.728;4.160;2022-12-07T00:03:39;26.80;;;20.05;;
57635;SDS011;43465;50.728;4.160;2022-12-07T00:06:06;34.85;;;20.33;;
57635;SDS011;43465;50.728;4.160;2022-12-07T00:08:33;26.75;;;20.05;;
57635;SDS011;43465;50.728;4.160;2022-12-07T00:11:00;32.45;;;21.77;;
57635;SDS011;43465;50.728;4.160;2022-12-07T00:13:28;34.40;;;20.90;;
57635;SDS011;43465;50.728;4.160;2022-12-07T00:15:54;30.80;;;21.20;;
57635;SDS011;43465;50.728;4.160;2022-12-07T00:18:19;33.33;;;20.75;;
57635;SDS011;43465;50.728;4.160;2022-12-07T00:20:45;35.13;;;21.55;;
57635;SDS011;43465;50.728;4.160;2022-12-07T00:23:11;30.15;;;20.80;;
57635;SDS011;43465;50.728;4.160;2022-12-07T00:25:36;32.85;;;21.10;;
57635;SDS011;43465;50.728;4.160;2022-12-07T00:28:02;30.80;;;19.95;;
57635;SDS011;43465;50.728;4.160;2022-12-07T00:30:28;28.30;;;19.20;;
57635;SDS011;43465;50.728;4.160;2022-12-07T00:32:53;31.45;;;20.33;;
57635;SDS011;43465;50.728;4.160;2022-12-07T00:35:19;26.63;;;19.05;;
57635;SDS011;43465;50.728;4.160;2022-12-07T00:37:44;29.42;;;19.08;;
57635;SDS011;43465;50.728;4.160;2022-12-07T00:40:10;26.95;;;18.90;;
57635;SDS011;43465;50.728;4.160;2022-12-07T00:42:36;29.05;;;18.80;;
57635;SDS011;43465;50.728;4.160;2022-12-07T00:45:02;26.42;;;18.80;;
57635;SDS011;43465;50.728;4.160;2022-12-07T00:47:28;23.90;;;18.20;;
57635;SDS011;43465;50.728;4.160;2022-12-07T00:49:53;24.60;;;18.55;;
57635;SDS011;43465;50.728;4.160;2022-12-07T00:52:19;28.27;;;17.67;;
57635;SDS011;43465;50.728;4.160;2022-12-07T00:54:44;26.63;;;17.58;;
57635;SDS011;43465;50.728;4.160;2022-12-07T00:57:10;23.15;;;17.40;;
57635;SDS011;43465;50.728;4.160;2022-12-07T00:59:36;23.00;;;16.70;;
57635;SDS011;43465;50.728;4.160;2022-12-07T01:02:01;27.45;;;17.73;;
57635;SDS011;43465;50.728;4.160;2022-12-07T01:04:27;21.73;;;17.73;;
57635;SDS011;43465;50.728;4.160;2022-12-07T01:06:52;30.13;;;17.67;;
57635;SDS011;43465;50.728;4.160;2022-12-07T01:09:18;25.02;;;18.17;;
57635;SDS011;43465;50.728;4.160;2022-12-07T01:11:44;28.23;;;17.77;;
57635;SDS011;43465;50.728;4.160;2022-12-07T01:14:09;28.92;;;18.90;;
57635;SDS011;43465;50.728;4.160;2022-12-07T01:16:35;30.85;;;18.55;;
57635;SDS011;43465;50.728;4.160;2022-12-07T01:19:01;26.98;;;18.10;;
57635;SDS011;43465;50.728;4.160;2022-12-07T01:21:30;29.85;;;19.73;;
57635;SDS011;43465;50.728;4.160;2022-12-07T01:24:00;29.80;;;20.38;;
57635;SDS011;43465;50.728;4.160;2022-12-07T01:26:26;26.40;;;20.23;;
57635;SDS011;43465;50.728;4.160;2022-12-07T01:28:52;28.10;;;20.67;;
57635;SDS011;43465;50.728;4.160;2022-12-07T01:31:21;29.42;;;20.10;;
57635;SDS011;43465;50.728;4.160;2022-12-07T01:33:49;28.85;;;19.42;;
57635;SDS011;43465;50.728;4.160;2022-12-07T01:36:17;28.88;;;20.08;;
57635;SDS011;43465;50.728;4.160;2022-12-07T01:38:55;26.85;;;18.65;;
57635;SDS011;43465;50.728;4.160;2022-12-07T01:41:23;32.30;;;18.88;;
57635;SDS011;43465;50.728;4.160;2022-12-07T01:46:37;31.88;;;18.80;;
57635;SDS011;43465;50.728;4.160;2022-12-07T01:49:04;29.13;;;20.20;;
57635;SDS011;43465;50.728;4.160;2022-12-07T01:51:33;28.20;;;19.83;;
57635;SDS011;43465;50.728;4.160;2022-12-07T01:53:59;31.73;;;21.02;;
57635;SDS011;43465;50.728;4.160;2022-12-07T01:56:26;32.47;;;20.25;;
57635;SDS011;43465;50.728;4.160;2022-12-07T01:58:54;31.50;;;21.95;;
57635;SDS011;43465;50.728;4.160;2022-12-07T02:01:22;31.38;;;21.75;;
57635;SDS011;43465;50.728;4.160;2022-12-07T02:03:47;33.95;;;20.27;;
57635;SDS011;43465;50.728;4.160;2022-12-07T02:06:15;31.88;;;20.77;;
57635;SDS011;43465;50.728;4.160;2022-12-07T02:08:44;31.20;;;21.02;;
57635;SDS011;43465;50.728;4.160;2022-12-07T02:11:11;32.30;;;21.15;;
57635;SDS011;43465;50.728;4.160;2022-12-07T02:13:37;29.65;;;21.70;;
57635;SDS011;43465;50.728;4.160;2022-12-07T02:19:11;30.25;;;20.95;;
57635;SDS011;43465;50.728;4.160;2022-12-07T02:21:53;28.48;;;19.73;;
57635;SDS011;43465;50.728;4.160;2022-12-07T02:27:17;32.63;;;21.10;;
57635;SDS011;43465;50.728;4.160;2022-12-07T02:29:58;29.80;;;19.83;;
57635;SDS011;43465;50.728;4.160;2022-12-07T02:32:36;27.92;;;20.20;;
57635;SDS011;43465;50.728;4.160;2022-12-07T02:35:36;25.77;;;20.17;;
57635;SDS011;43465;50.728;4.160;2022-12-07T02:40:51;29.75;;;20.13;;
57635;SDS011;43465;50.728;4.160;2022-12-07T02:43:23;29.08;;;19.95;;
57635;SDS011;43465;50.728;4.160;2022-12-07T02:45:50;27.60;;;19.75;;
57635;SDS011;43465;50.728;4.160;2022-12-07T02:48:19;30.08;;;20.23;;
57635;SDS011;43465;50.728;4.160;2022-12-07T02:50:49;26.73;;;20.30;;
57635;SDS011;43465;50.728;4.160;2022-12-07T02:53:33;29.30;;;19.45;;
57635;SDS011;43465;50.728;4.160;2022-12-07T03:07:11;22.08;;;15.43;;
57635;SDS011;43465;50.728;4.160;2022-12-07T03:09:48;18.33;;;14.07;;
57635;SDS011;43465;50.728;4.160;2022-12-07T03:12:35;17.75;;;13.35;;
57635;SDS011;43465;50.728;4.160;2022-12-07T03:15:19;18.77;;;13.20;;
57635;SDS011;43465;50.728;4.160;2022-12-07T03:17:52;17.20;;;11.95;;
57635;SDS011;43465;50.728;4.160;2022-12-07T03:20:20;18.45;;;13.15;;
57635;SDS011;43465;50.728;4.160;2022-12-07T03:22:48;20.38;;;13.18;;
57635;SDS011;43465;50.728;4.160;2022-12-07T03:25:16;18.17;;;13.68;;
57635;SDS011;43465;50.728;4.160;2022-12-07T03:27:53;15.98;;;13.23;;
57635;SDS011;43465;50.728;4.160;2022-12-07T03:30:29;21.95;;;13.98;;
57635;SDS011;43465;50.728;4.160;2022-12-07T03:33:08;17.55;;;13.85;;
57635;SDS011;43465;50.728;4.160;2022-12-07T03:38:28;19.08;;;14.05;;
57635;SDS011;43465;50.728;4.160;2022-12-07T03:41:04;19.33;;;13.90;;
57635;SDS011;43465;50.728;4.160;2022-12-07T03:43:41;21.73;;;14.15;;
57635;SDS011;43465;50.728;4.160;2022-12-07T03:51:42;23.80;;;16.30;;
57635;SDS011;43465;50.728;4.160;2022-12-07T03:54:12;22.45;;;15.88;;
57635;SDS011;43465;50.728;4.160;2022-12-07T03:56:51;22.73;;;16.30;;
57635;SDS011;43465;50.728;4.160;2022-12-07T03:59:18;22.17;;;15.98;;
57635;SDS011;43465;50.728;4.160;2022-12-07T04:01:51;21.88;;;15.73;;
57635;SDS011;43465;50.728;4.160;2022-12-07T04:04:19;23.13;;;17.35;;
57635;SDS011;43465;50.728;4.160;2022-12-07T04:06:45;24.17;;;16.40;;
57635;SDS011;43465;50.728;4.160;2022-12-07T04:09:11;24.90;;;18.02;;
57635;SDS011;43465;50.728;4.160;2022-12-07T04:11:36;27.33;;;17.70;;
57635;SDS011;43465;50.728;4.160;2022-12-07T04:14:02;22.30;;;17.60;;
57635;SDS011;43465;50.728;4.160;2022-12-07T04:16:54;24.05;;;16.52;;
57635;SDS011;43465;50.728;4.160;2022-12-07T04:19:27;25.45;;;17.85;;
57635;SDS011;43465;50.728;4.160;2022-12-07T04:21:54;23.65;;;17.73;;
57635;SDS011;43465;50.728;4.160;2022-12-07T04:24:22;28.80;;;19.50;;
57635;SDS011;43465;50.728;4.160;2022-12-07T04:26:48;24.60;;;18.73;;
57635;SDS011;43465;50.728;4.160;2022-12-07T04:29:14;27.90;;;19.73;;
57635;SDS011;43465;50.728;4.160;2022-12-07T04:31:40;29.67;;;19.88;;
57635;SDS011;43465;50.728;4.160;2022-12-07T04:34:06;32.47;;;19.48;;
57635;SDS011;43465;50.728;4.160;2022-12-07T04:36:32;27.02;;;19.63;;
57635;SDS011;43465;50.728;4.160;2022-12-07T04:38:58;30.75;;;19.50;;
57635;SDS011;43465;50.728;4.160;2022-12-07T04:41:24;27.00;;;19.35;;
57635;SDS011;43465;50.728;4.160;2022-12-07T04:44:00;32.60;;;21.08;;
57635;SDS011;43465;50.728;4.160;2022-12-07T04:46:28;29.10;;;20.60;;
57635;SDS011;43465;50.728;4.160;2022-12-07T04:48:55;28.45;;;20.02;;
57635;SDS011;43465;50.728;4.160;2022-12-07T04:51:22;27.85;;;20.30;;
57635;SDS011;43465;50.728;4.160;2022-12-07T04:53:52;29.73;;;20.55;;
57635;SDS011;43465;50.728;4.160;2022-12-07T04:56:18;28.80;;;20.17;;
57635;SDS011;43465;50.728;4.160;2022-12-07T04:58:44;36.53;;;22.20;;
57635;SDS011;43465;50.728;4.160;2022-12-07T05:01:11;34.38;;;21.05;;
57635;SDS011;43465;50.728;4.160;2022-12-07T05:03:37;32.97;;;20.40;;
57635;SDS011;43465;50.728;4.160;2022-12-07T05:06:03;39.70;;;20.77;;
57635;SDS011;43465;50.728;4.160;2022-12-07T05:08:30;80.03;;;21.60;;
57635;SDS011;43465;50.728;4.160;2022-12-07T05:10:56;62.88;;;21.27;;
57635;SDS011;43465;50.728;4.160;2022-12-07T05:13:22;38.13;;;20.08;;
57635;SDS011;43465;50.728;4.160;2022-12-07T05:15:47;31.40;;;21.15;;
57635;SDS011;43465;50.728;4.160;2022-12-07T05:18:13;31.98;;;21.10;;
57635;SDS011;43465;50.728;4.160;2022-12-07T05:20:40;52.35;;;20.92;;
57635;SDS011;43465;50.728;4.160;2022-12-07T05:23:06;133.52;;;23.08;;
57635;SDS011;43465;50.728;4.160;2022-12-07T05:25:32;271.30;;;25.25;;
57635;SDS011;43465;50.728;4.160;2022-12-07T05:27:58;444.98;;;32.45;;
57635;SDS011;43465;50.728;4.160;2022-12-07T05:30:24;298.35;;;28.17;;
57635;SDS011;43465;50.728;4.160;2022-12-07T05:32:50;195.90;;;25.08;;
57635;SDS011;43465;50.728;4.160;2022-12-07T05:35:16;37.65;;;22.00;;
57635;SDS011;43465;50.728;4.160;2022-12-07T05:37:42;36.17;;;22.08;;
57635;SDS011;43465;50.728;4.160;2022-12-07T05:40:08;31.95;;;21.95;;
57635;SDS011;43465;50.728;4.160;2022-12-07T05:42:34;32.63;;;23.02;;
57635;SDS011;43465;50.728;4.160;2022-12-07T05:45:00;32.03;;;23.92;;
57635;SDS011;43465;50.728;4.160;2022-12-07T05:47:26;36.63;;;23.90;;
57635;SDS011;43465;50.728;4.160;2022-12-07T05:49:51;35.33;;;22.75;;
57635;SDS011;43465;50.728;4.160;2022-12-07T05:52:17;149.90;;;24.67;;
57635;SDS011;43465;50.728;4.160;2022-12-07T05:54:43;43.83;;;20.75;;
57635;SDS011;43465;50.728;4.160;2022-12-07T05:57:08;33.65;;;21.92;;
57635;SDS011;43465;50.728;4.160;2022-12-07T05:59:34;32.38;;;21.17;;
57635;SDS011;43465;50.728;4.160;2022-12-07T06:02:05;30.50;;;20.90;;
57635;SDS011;43465;50.728;4.160;2022-12-07T06:04:34;35.15;;;22.15;;
57635;SDS011;43465;50.728;4.160;2022-12-07T06:07:03;27.30;;;21.40;;
57635;SDS011;43465;50.728;4.160;2022-12-07T06:09:30;28.20;;;20.50;;
57635;SDS011;43465;50.728;4.160;2022-12-07T06:11:57;32.35;;;20.95;;
57635;SDS011;43465;50.728;4.160;2022-12-07T06:14:49;33.20;;;19.80;;
57635;SDS011;43465;50.728;4.160;2022-12-07T06:17:15;27.48;;;20.02;;
57635;SDS011;43465;50.728;4.160;2022-12-07T06:19:41;26.92;;;19.10;;
57635;SDS011;43465;50.728;4.160;2022-12-07T06:22:07;28.75;;;19.63;;
57635;SDS011;43465;50.728;4.160;2022-12-07T06:24:34;27.08;;;18.98;;
57635;SDS011;43465;50.728;4.160;2022-12-07T06:27:00;28.60;;;19.15;;
57635;SDS011;43465;50.728;4.160;2022-12-07T06:29:26;27.08;;;18.98;;
57635;SDS011;43465;50.728;4.160;2022-12-07T06:31:52;25.83;;;18.67;;
57635;SDS011;43465;50.728;4.160;2022-12-07T06:34:18;23.10;;;18.52;;
57635;SDS011;43465;50.728;4.160;2022-12-07T06:36:47;27.30;;;20.25;;
57635;SDS011;43465;50.728;4.160;2022-12-07T06:39:16;35.70;;;22.98;;
57635;SDS011;43465;50.728;4.160;2022-12-07T06:41:43;34.70;;;22.30;;
57635;SDS011;43465;50.728;4.160;2022-12-07T06:44:09;32.92;;;22.70;;
57635;SDS011;43465;50.728;4.160;2022-12-07T06:46:34;37.25;;;23.40;;
57635;SDS011;43465;50.728;4.160;2022-12-07T06:49:00;28.73;;;22.02;;
57635;SDS011;43465;50.728;4.160;2022-12-07T06:51:26;34.60;;;21.75;;
57635;SDS011;43465;50.728;4.160;2022-12-07T06:53:52;29.45;;;21.30;;
57635;SDS011;43465;50.728;4.160;2022-12-07T06:56:18;28.33;;;21.05;;
57635;SDS011;43465;50.728;4.160;2022-12-07T06:58:44;34.83;;;22.50;;
57635;SDS011;43465;50.728;4.160;2022-12-07T07:01:10;32.22;;;20.33;;
57635;SDS011;43465;50.728;4.160;2022-12-07T07:03:37;31.48;;;19.50;;
57635;SDS011;43465;50.728;4.160;2022-12-07T07:06:03;31.55;;;19.75;;
57635;SDS011;43465;50.728;4.160;2022-12-07T07:08:29;30.95;;;19.80;;
57635;SDS011;43465;50.728;4.160;2022-12-07T07:10:55;34.38;;;19.48;;
57635;SDS011;43465;50.728;4.160;2022-12-07T07:13:21;33.33;;;18.27;;
57635;SDS011;43465;50.728;4.160;2022-12-07T07:15:47;31.05;;;19.15;;
57635;SDS011;43465;50.728;4.160;2022-12-07T07:18:12;33.25;;;19.05;;
57635;SDS011;43465;50.728;4.160;2022-12-07T07:20:38;25.77;;;18.50;;
57635;SDS011;43465;50.728;4.160;2022-12-07T07:23:04;26.58;;;18.80;;
57635;SDS011;43465;50.728;4.160;2022-12-07T07:25:31;32.22;;;19.90;;
57635;SDS011;43465;50.728;4.160;2022-12-07T07:27:57;27.50;;;18.67;;
57635;SDS011;43465;50.728;4.160;2022-12-07T07:30:23;30.80;;;18.75;;
57635;SDS011;43465;50.728;4.160;2022-12-07T07:32:48;26.50;;;17.08;;
57635;SDS011;43465;50.728;4.160;2022-12-07T07:35:14;23.33;;;16.10;;
57635;SDS011;43465;50.728;4.160;2022-12-07T07:37:40;36.53;;;16.80;;
57635;SDS011;43465;50.728;4.160;2022-12-07T07:40:06;27.38;;;17.17;;
57635;SDS011;43465;50.728;4.160;2022-12-07T07:42:33;27.23;;;15.40;;
57635;SDS011;43465;50.728;4.160;2022-12-07T07:44:58;27.67;;;16.90;;
57635;SDS011;43465;50.728;4.160;2022-12-07T07:47:24;28.80;;;18.33;;
57635;SDS011;43465;50.728;4.160;2022-12-07T07:49:50;23.65;;;15.70;;
57635;SDS011;43465;50.728;4.160;2022-12-07T07:52:15;23.00;;;14.05;;
57635;SDS011;43465;50.728;4.160;2022-12-07T07:54:41;21.83;;;14.18;;
57635;SDS011;43465;50.728;4.160;2022-12-07T07:57:06;27.73;;;14.48;;
57635;SDS011;43465;50.728;4.160;2022-12-07T07:59:32;21.73;;;13.90;;
57635;SDS011;43465;50.728;4.160;2022-12-07T08:01:58;26.63;;;15.13;;
57635;SDS011;43465;50.728;4.160;2022-12-07T08:04:23;28.13;;;14.57;;
57635;SDS011;43465;50.728;4.160;2022-12-07T08:06:49;20.88;;;14.95;;
57635;SDS011;43465;50.728;4.160;2022-12-07T08:09:15;29.23;;;14.88;;
57635;SDS011;43465;50.728;4.160;2022-12-07T08:11:40;28.35;;;15.68;;
57635;SDS011;43465;50.728;4.160;2022-12-07T08:14:06;25.33;;;15.90;;
57635;SDS011;43465;50.728;4.160;2022-12-07T08:16:31;28.40;;;16.17;;
57635;SDS011;43465;50.728;4.160;2022-12-07T08:18:57;29.77;;;16.70;;
57635;SDS011;43465;50.728;4.160;2022-12-07T08:21:23;31.55;;;17.48;;
57635;SDS011;43465;50.728;4.160;2022-12-07T08:23:49;24.70;;;14.77;;
57635;SDS011;43465;50.728;4.160;2022-12-07T08:26:15;32.33;;;16.17;;
57635;SDS011;43465;50.728;4.160;2022-12-07T08:28:41;32.63;;;16.90;;
57635;SDS011;43465;50.728;4.160;2022-12-07T08:31:09;29.00;;;17.02;;
57635;SDS011;43465;50.728;4.160;2022-12-07T08:33:40;27.02;;;17.15;;
57635;SDS011;43465;50.728;4.160;2022-12-07T08:36:07;36.67;;;18.83;;
57635;SDS011;43465;50.728;4.160;2022-12-07T08:38:35;28.85;;;19.05;;
57635;SDS011;43465;50.728;4.160;2022-12-07T08:41:01;31.63;;;19.85;;
57635;SDS011;43465;50.728;4.160;2022-12-07T08:43:27;33.35;;;19.42;;
57635;SDS011;43465;50.728;4.160;2022-12-07T08:46:39;28.77;;;18.70;;
57635;SDS011;43465;50.728;4.160;2022-12-07T08:48:59;44.40;;;18.73;;
57635;SDS011;43465;50.728;4.160;2022-12-07T08:51:28;43.63;;;18.77;;
57635;SDS011;43465;50.728;4.160;2022-12-07T08:53:54;40.65;;;19.17;;
57635;SDS011;43465;50.728;4.160;2022-12-07T08:56:21;39.67;;;18.58;;
57635;SDS011;43465;50.728;4.160;2022-12-07T08:58:47;30.20;;;18.90;;
57635;SDS011;43465;50.728;4.160;2022-12-07T09:01:13;31.33;;;18.55;;
57635;SDS011;43465;50.728;4.160;2022-12-07T09:03:39;36.03;;;18.20;;
57635;SDS011;43465;50.728;4.160;2022-12-07T09:06:05;29.50;;;17.65;;
57635;SDS011;43465;50.728;4.160;2022-12-07T09:08:33;35.00;;;17.05;;
57635;SDS011;43465;50.728;4.160;2022-12-07T09:11:09;33.90;;;17.30;;
57635;SDS011;43465;50.728;4.160;2022-12-07T09:13:34;37.65;;;18.25;;
57635;SDS011;43465;50.728;4.160;2022-12-07T09:16:00;32.92;;;16.55;;
57635;SDS011;43465;50.728;4.160;2022-12-07T09:18:26;28.38;;;15.00;;
57635;SDS011;43465;50.728;4.160;2022-12-07T09:20:51;24.90;;;13.90;;
57635;SDS011;43465;50.728;4.160;2022-12-07T09:23:17;23.15;;;13.20;;
57635;SDS011;43465;50.728;4.160;2022-12-07T09:25:43;20.90;;;13.35;;
57635;SDS011;43465;50.728;4.160;2022-12-07T09:28:09;23.65;;;13.18;;
57635;SDS011;43465;50.728;4.160;2022-12-07T09:30:34;27.92;;;14.23;;
57635;SDS011;43465;50.728;4.160;2022-12-07T09:33:00;41.60;;;16.17;;
57635;SDS011;43465;50.728;4.160;2022-12-07T09:35:26;26.35;;;14.88;;
57635;SDS011;43465;50.728;4.160;2022-12-07T09:37:52;33.22;;;14.77;;
57635;SDS011;43465;50.728;4.160;2022-12-07T09:40:20;31.60;;;13.35;;
57635;SDS011;43465;50.728;4.160;2022-12-07T09:42:48;24.88;;;12.88;;
57635;SDS011;43465;50.728;4.160;2022-12-07T09:45:18;20.75;;;13.40;;
57635;SDS011;43465;50.728;4.160;2022-12-07T09:47:48;22.02;;;11.95;;
57635;SDS011;43465;50.728;4.160;2022-12-07T09:50:15;22.00;;;12.60;;
57635;SDS011;43465;50.728;4.160;2022-12-07T09:52:45;18.85;;;12.30;;
57635;SDS011;43465;50.728;4.160;2022-12-07T09:55:14;16.70;;;11.65;;
57635;SDS011;43465;50.728;4.160;2022-12-07T09:57:49;19.58;;;12.07;;
57635;SDS011;43465;50.728;4.160;2022-12-07T10:00:17;21.20;;;12.30;;
57635;SDS011;43465;50.728;4.160;2022-12-07T10:02:56;18.92;;;12.20;;
57635;SDS011;43465;50.728;4.160;2022-12-07T10:05:34;23.42;;;12.93;;
57635;SDS011;43465;50.728;4.160;2022-12-07T10:08:03;20.42;;;13.15;;
57635;SDS011;43465;50.728;4.160;2022-12-07T10:10:31;21.10;;;11.15;;
57635;SDS011;43465;50.728;4.160;2022-12-07T10:13:02;16.90;;;9.68;;
57635;SDS011;43465;50.728;4.160;2022-12-07T10:15:49;18.50;;;9.95;;
57635;SDS011;43465;50.728;4.160;2022-12-07T10:18:18;16.02;;;9.23;;
57635;SDS011;43465;50.728;4.160;2022-12-07T10:21:26;14.75;;;9.65;;
57635;SDS011;43465;50.728;4.160;2022-12-07T10:24:08;16.13;;;8.63;;
57635;SDS011;43465;50.728;4.160;2022-12-07T10:26:41;12.88;;;8.55;;
57635;SDS011;43465;50.728;4.160;2022-12-07T10:31:54;18.58;;;8.57;;
57635;SDS011;43465;50.728;4.160;2022-12-07T10:34:36;12.02;;;8.48;;
57635;SDS011;43465;50.728;4.160;2022-12-07T10:39:44;16.83;;;9.00;;
57635;SDS011;43465;50.728;4.160;2022-12-07T10:42:18;15.18;;;9.23;;
57635;SDS011;43465;50.728;4.160;2022-12-07T10:44:46;13.98;;;8.52;;
57635;SDS011;43465;50.728;4.160;2022-12-07T10:55:16;15.48;;;8.55;;
57635;SDS011;43465;50.728;4.160;2022-12-07T11:09:16;16.42;;;8.80;;
57635;SDS011;43465;50.728;4.160;2022-12-07T11:11:59;12.90;;;8.05;;
57635;SDS011;43465;50.728;4.160;2022-12-07T11:20:27;14.20;;;6.30;;
57635;SDS011;43465;50.728;4.160;2022-12-07T11:25:32;18.25;;;6.60;;
57635;SDS011;43465;50.728;4.160;2022-12-07T11:33:46;15.75;;;5.20;;
57635;SDS011;43465;50.728;4.160;2022-12-07T11:41:13;5.50;;;4.60;;
57635;SDS011;43465;50.728;4.160;2022-12-07T11:46:22;8.38;;;3.97;;
57635;SDS011;43465;50.728;4.160;2022-12-07T11:51:24;7.65;;;3.90;;
57635;SDS011;43465;50.728;4.160;2022-12-07T11:53:52;9.50;;;3.83;;
57635;SDS011;43465;50.728;4.160;2022-12-07T11:56:25;9.07;;;4.07;;
57635;SDS011;43465;50.728;4.160;2022-12-07T12:01:47;4.90;;;3.15;;
57635;SDS011;43465;50.728;4.160;2022-12-07T12:07:16;7.05;;;3.40;;
57635;SDS011;43465;50.728;4.160;2022-12-07T12:22:53;7.40;;;2.50;;
57635;SDS011;43465;50.728;4.160;2022-12-07T12:25:27;6.03;;;2.00;;
57635;SDS011;43465;50.728;4.160;2022-12-07T12:27:58;2.35;;;1.70;;
57635;SDS011;43465;50.728;4.160;2022-12-07T12:33:03;7.47;;;2.40;;
57635;SDS011;43465;50.728;4.160;2022-12-07T12:35:33;5.68;;;2.65;;
57635;SDS011;43465;50.728;4.160;2022-12-07T12:40:56;9.45;;;3.13;;
57635;SDS011;43465;50.728;4.160;2022-12-07T12:48:55;7.13;;;3.40;;
57635;SDS011;43465;50.728;4.160;2022-12-07T12:51:40;7.18;;;2.85;;
57635;SDS011;43465;50.728;4.160;2022-12-07T12:59:23;8.13;;;3.75;;
57635;SDS011;43465;50.728;4.160;2022-12-07T13:12:57;6.35;;;3.35;;
57635;SDS011;43465;50.728;4.160;2022-12-07T13:15:53;6.35;;;2.78;;
57635;SDS011;43465;50.728;4.160;2022-12-07T13:21:00;2.95;;;1.85;;
57635;SDS011;43465;50.728;4.160;2022-12-07T13:23:28;4.95;;;2.47;;
57635;SDS011;43465;50.728;4.160;2022-12-07T13:26:19;7.43;;;3.33;;
57635;SDS011;43465;50.728;4.160;2022-12-07T13:36:50;4.80;;;2.45;;
57635;SDS011;43465;50.728;4.160;2022-12-07T13:39:18;5.55;;;2.20;;
57635;SDS011;43465;50.728;4.160;2022-12-07T13:41:54;4.43;;;2.17;;
57635;SDS011;43465;50.728;4.160;2022-12-07T13:44:22;4.68;;;2.38;;
57635;SDS011;43465;50.728;4.160;2022-12-07T13:49:16;7.05;;;2.35;;
57635;SDS011;43465;50.728;4.160;2022-12-07T13:51:45;4.20;;;2.13;;
57635;SDS011;43465;50.728;4.160;2022-12-07T13:54:12;5.78;;;2.40;;
57635;SDS011;43465;50.728;4.160;2022-12-07T13:56:39;2.95;;;2.17;;
57635;SDS011;43465;50.728;4.160;2022-12-07T13:59:05;6.32;;;2.65;;
57635;SDS011;43465;50.728;4.160;2022-12-07T14:01:42;7.82;;;2.50;;
57635;SDS011;43465;50.728;4.160;2022-12-07T14:06:53;4.35;;;2.50;;
57635;SDS011;43465;50.728;4.160;2022-12-07T14:09:20;4.82;;;2.67;;
57635;SDS011;43465;50.728;4.160;2022-12-07T14:11:48;6.47;;;2.40;;
57635;SDS011;43465;50.728;4.160;2022-12-07T14:14:16;5.65;;;2.03;;
57635;SDS011;43465;50.728;4.160;2022-12-07T14:16:54;4.32;;;2.40;;
57635;SDS011;43465;50.728;4.160;2022-12-07T14:22:41;8.23;;;2.60;;
57635;SDS011;43465;50.728;4.160;2022-12-07T14:27:58;12.27;;;3.10;;
57635;SDS011;43465;50.728;4.160;2022-12-07T14:30:30;5.88;;;2.53;;
57635;SDS011;43465;50.728;4.160;2022-12-07T14:33:01;3.10;;;1.70;;
57635;SDS011;43465;50.728;4.160;2022-12-07T14:35:28;1.63;;;1.52;;
57635;SDS011;43465;50.728;4.160;2022-12-07T14:37:56;2.75;;;1.50;;
57635;SDS011;43465;50.728;4.160;2022-12-07T14:40:23;3.75;;;1.30;;
57635;SDS011;43465;50.728;4.160;2022-12-07T14:42:51;1.55;;;1.20;;
57635;SDS011;43465;50.728;4.160;2022-12-07T14:45:21;4.22;;;1.05;;
57635;SDS011;43465;50.728;4.160;2022-12-07T14:47:47;1.50;;;1.17;;
57635;SDS011;43465;50.728;4.160;2022-12-07T14:50:14;1.60;;;1.17;;
57635;SDS011;43465;50.728;4.160;2022-12-07T14:52:43;2.33;;;1.08;;
57635;SDS011;43465;50.728;4.160;2022-12-07T14:55:19;2.90;;;1.00;;
57635;SDS011;43465;50.728;4.160;2022-12-07T14:57:49;4.93;;;1.20;;
57635;SDS011;43465;50.728;4.160;2022-12-07T15:00:15;1.67;;;1.00;;
57635;SDS011;43465;50.728;4.160;2022-12-07T15:02:42;2.75;;;1.10;;
57635;SDS011;43465;50.728;4.160;2022-12-07T15:05:09;2.38;;;1.30;;
57635;SDS011;43465;50.728;4.160;2022-12-07T15:07:34;2.63;;;1.10;;
57635;SDS011;43465;50.728;4.160;2022-12-07T15:10:00;3.22;;;1.38;;
57635;SDS011;43465;50.728;4.160;2022-12-07T15:12:26;2.92;;;1.30;;
57635;SDS011;43465;50.728;4.160;2022-12-07T15:14:52;2.97;;;1.20;;
57635;SDS011;43465;50.728;4.160;2022-12-07T15:17:17;2.20;;;1.05;;
57635;SDS011;43465;50.728;4.160;2022-12-07T15:19:43;2.67;;;1.40;;
57635;SDS011;43465;50.728;4.160;2022-12-07T15:22:09;2.05;;;1.20;;
57635;SDS011;43465;50.728;4.160;2022-12-07T15:24:36;3.25;;;1.33;;
57635;SDS011;43465;50.728;4.160;2022-12-07T15:27:02;2.20;;;1.40;;
57635;SDS011;43465;50.728;4.160;2022-12-07T15:29:28;2.88;;;1.50;;
57635;SDS011;43465;50.728;4.160;2022-12-07T15:31:54;1.90;;;1.30;;
57635;SDS011;43465;50.728;4.160;2022-12-07T15:34:20;4.30;;;1.45;;
57635;SDS011;43465;50.728;4.160;2022-12-07T15:36:46;4.20;;;1.55;;
57635;SDS011;43465;50.728;4.160;2022-12-07T15:39:11;3.17;;;2.00;;
57635;SDS011;43465;50.728;4.160;2022-12-07T15:41:37;2.90;;;1.67;;
57635;SDS011;43465;50.728;4.160;2022-12-07T15:44:03;4.97;;;1.95;;
57635;SDS011;43465;50.728;4.160;2022-12-07T15:46:47;2.17;;;1.95;;
57635;SDS011;43465;50.728;4.160;2022-12-07T15:49:14;2.88;;;2.13;;
57635;SDS011;43465;50.728;4.160;2022-12-07T15:51:43;5.65;;;2.17;;
57635;SDS011;43465;50.728;4.160;2022-12-07T15:54:22;4.85;;;2.55;;
57635;SDS011;43465;50.728;4.160;2022-12-07T15:56:50;6.82;;;3.13;;
57635;SDS011;43465;50.728;4.160;2022-12-07T15:59:16;3.63;;;2.90;;
57635;SDS011;43465;50.728;4.160;2022-12-07T16:01:42;7.53;;;3.25;;
57635;SDS011;43465;50.728;4.160;2022-12-07T16:04:07;5.80;;;3.35;;
57635;SDS011;43465;50.728;4.160;2022-12-07T16:06:33;8.43;;;3.63;;
57635;SDS011;43465;50.728;4.160;2022-12-07T16:08:59;7.28;;;4.07;;
57635;SDS011;43465;50.728;4.160;2022-12-07T16:11:25;6.95;;;3.53;;
57635;SDS011;43465;50.728;4.160;2022-12-07T16:13:50;6.32;;;4.00;;
57635;SDS011;43465;50.728;4.160;2022-12-07T16:16:17;10.68;;;5.38;;
57635;SDS011;43465;50.728;4.160;2022-12-07T16:18:44;4.03;;;3.05;;
57635;SDS011;43465;50.728;4.160;2022-12-07T16:21:11;6.63;;;3.10;;
57635;SDS011;43465;50.728;4.160;2022-12-07T16:23:37;5.18;;;2.58;;
57635;SDS011;43465;50.728;4.160;2022-12-07T16:26:13;5.45;;;2.60;;
57635;SDS011;43465;50.728;4.160;2022-12-07T16:28:41;6.25;;;3.53;;
57635;SDS011;43465;50.728;4.160;2022-12-07T16:31:13;6.57;;;3.83;;
57635;SDS011;43465;50.728;4.160;2022-12-07T16:33:41;5.93;;;4.60;;
57635;SDS011;43465;50.728;4.160;2022-12-07T16:36:08;10.60;;;5.90;;
57635;SDS011;43465;50.728;4.160;2022-12-07T16:38:35;10.00;;;5.57;;
57635;SDS011;43465;50.728;4.160;2022-12-07T16:41:01;7.25;;;5.00;;
57635;SDS011;43465;50.728;4.160;2022-12-07T16:43:28;7.35;;;4.38;;
57635;SDS011;43465;50.728;4.160;2022-12-07T16:45:53;7.05;;;4.30;;
57635;SDS011;43465;50.728;4.160;2022-12-07T16:48:19;11.85;;;5.25;;
57635;SDS011;43465;50.728;4.160;2022-12-07T16:50:46;7.00;;;4.78;;
57635;SDS011;43465;50.728;4.160;2022-12-07T16:53:12;8.25;;;5.25;;
57635;SDS011;43465;50.728;4.160;2022-12-07T16:55:39;12.30;;;5.53;;
57635;SDS011;43465;50.728;4.160;2022-12-07T16:58:10;8.98;;;4.95;;
57635;SDS011;43465;50.728;4.160;2022-12-07T17:00:40;9.05;;;5.05;;
57635;SDS011;43465;50.728;4.160;2022-12-07T17:03:06;8.43;;;5.13;;
57635;SDS011;43465;50.728;4.160;2022-12-07T17:05:33;8.90;;;5.20;;